Time;durP1;ratioP1;P1;durP2;ratioP2;P2;SDS_P1;SDS_P2;PMS_P1;PMS_P2;Temp;Humidity;BMP_temperature;BMP_pressure;BME280_temperature;BME280_humidity;BME280_pressure;Samples;Min_cycle;Max_cycle;Signal;HPM_P1;HPM_P2
2021/12/17 00:04:52;;;;;;;6.32;5.13;;;;;;;6.30;100.00;101375.00;6183885;23;20013;-82
2021/12/17 00:07:19;;;;;;;5.93;4.78;;;;;;;6.28;100.00;101358.03;6183287;23;20013;-82
2021/12/17 00:09:46;;;;;;;8.15;5.90;;;;;;;6.36;99.57;101367.19;6157556;23;20036;-82
2021/12/17 00:12:16;;;;;;;7.07;5.60;;;;;;;6.26;99.70;101359.59;6183175;23;20028;-82
2021/12/17 00:14:43;;;;;;;7.00;5.45;;;;;;;6.24;100.00;101354.44;6184258;23;20340;-82
2021/12/17 00:17:13;;;;;;;5.93;4.65;;;;;;;6.22;99.70;101348.53;6157204;23;20017;-82
2021/12/17 00:50:19;;;;;;;6.28;4.88;;;;;;;6.05;98.69;101344.41;6183843;23;20541;-82
2021/12/17 00:52:45;;;;;;;5.80;4.88;;;;;;;6.06;98.63;101353.47;6182984;23;20396;-81
2021/12/17 00:55:11;;;;;;;5.53;4.20;;;;;;;6.05;97.87;101354.63;6183359;23;20028;-81
2021/12/17 00:57:41;;;;;;;6.50;4.65;;;;;;;6.03;97.38;101370.72;6183017;23;20052;-82
2021/12/17 01:00:21;;;;;;;4.78;3.65;;;;;;;6.09;97.10;101374.72;6156706;23;20013;-81
2021/12/17 01:02:48;;;;;;;6.03;5.30;;;;;;;6.05;97.15;101376.66;6156305;23;20016;-82
2021/12/17 01:05:17;;;;;;;6.82;5.22;;;;;;;6.03;96.79;101401.00;6156542;23;20021;-82
2021/12/17 01:07:50;;;;;;;6.35;4.60;;;;;;;6.01;96.93;101386.81;6182882;23;20601;-81
2021/12/17 01:10:24;;;;;;;6.07;5.47;;;;;;;5.99;96.71;101397.41;6156910;23;20047;-82
2021/12/17 01:12:57;;;;;;;6.97;5.03;;;;;;;5.95;96.82;101411.13;6156240;23;20409;-82
2021/12/17 01:15:41;;;;;;;5.82;4.97;;;;;;;5.97;96.04;101432.81;6156569;23;20016;-81
2021/12/17 01:18:21;;;;;;;6.55;5.10;;;;;;;5.94;96.08;101411.53;6156167;23;20025;-81
2021/12/17 01:21:27;;;;;;;6.20;5.10;;;;;;;5.95;96.11;101435.94;6156851;23;20028;-81
2021/12/17 01:24:39;;;;;;;5.88;5.00;;;;;;;5.87;96.04;101445.25;6143704;23;20317;-82
2021/12/17 01:36:05;;;;;;;6.90;5.22;;;;;;;5.74;95.79;101440.31;6138643;23;20020;-81
2021/12/17 01:41:41;;;;;;;6.78;5.53;;;;;;;5.67;95.96;101440.19;6155993;23;20021;-82
2021/12/17 01:44:00;;;;;;;6.88;5.50;;;;;;;5.63;95.70;101437.38;6156001;23;20013;-82
2021/12/17 01:46:30;;;;;;;7.20;5.75;;;;;;;5.49;95.99;101424.19;6132662;23;20012;-81
2021/12/17 02:00:07;;;;;;;7.22;5.70;;;;;;;5.46;95.79;101397.41;6156493;23;20013;-82
2021/12/17 02:02:46;;;;;;;7.70;5.47;;;;;;;5.44;95.64;101388.72;6182962;23;20021;-82
2021/12/17 02:05:14;;;;;;;7.50;5.80;;;;;;;5.46;95.33;101391.88;6155972;23;20725;-82
2021/12/17 02:07:40;;;;;;;6.90;5.38;;;;;;;5.50;94.93;101391.97;6182703;23;20438;-82
2021/12/17 02:31:56;;;;;;;7.80;6.50;;;;;;;5.38;95.68;101362.66;6156019;23;20017;-82
2021/12/17 02:34:40;;;;;;;7.30;5.25;;;;;;;5.36;95.80;101351.25;6156140;23;20052;-82
2021/12/17 02:37:10;;;;;;;8.65;6.80;;;;;;;5.26;95.68;101351.09;6155772;23;20020;-82
2021/12/17 02:40:19;;;;;;;7.97;6.47;;;;;;;5.31;95.84;101351.56;6140966;23;20100;-82
2021/12/17 02:45:33;;;;;;;8.52;7.15;;;;;;;5.23;95.98;101360.88;6156463;23;20017;-82
2021/12/17 02:48:10;;;;;;;8.70;6.65;;;;;;;5.11;96.47;101352.81;6182057;23;20009;-82
2021/12/17 02:50:43;;;;;;;10.05;7.10;;;;;;;5.15;96.68;101353.66;6154608;23;20117;-82
2021/12/17 02:53:09;;;;;;;9.05;7.15;;;;;;;5.10;96.81;101359.47;6182192;23;20139;-82
2021/12/17 02:55:40;;;;;;;7.68;6.75;;;;;;;5.08;96.91;101353.56;6156151;23;20013;-82
2021/12/17 02:58:06;;;;;;;8.20;6.97;;;;;;;5.03;97.40;101351.09;6180473;23;20021;-82
2021/12/17 03:00:35;;;;;;;8.95;7.18;;;;;;;4.97;97.06;101347.09;6182325;23;20450;-82
2021/12/17 03:03:03;;;;;;;7.78;6.25;;;;;;;4.92;97.45;101344.66;6182185;23;20005;-82
2021/12/17 03:05:28;;;;;;;9.18;6.55;;;;;;;4.93;97.17;101351.75;6182421;23;20088;-82
2021/12/17 03:07:56;;;;;;;7.78;6.53;;;;;;;4.90;97.25;101352.44;6182513;23;20443;-82
2021/12/17 03:10:22;;;;;;;6.43;4.57;;;;;;;4.90;97.12;101333.19;6132162;23;20020;-81
2021/12/17 03:12:52;;;;;;;7.53;5.80;;;;;;;4.88;97.06;101343.78;6182229;23;20035;-81
2021/12/17 03:18:26;;;;;;;7.60;6.00;;;;;;;4.82;97.22;101340.53;6182233;23;20554;-81
2021/12/17 03:23:29;;;;;;;7.85;5.90;;;;;;;4.83;97.10;101344.09;6155851;23;20416;-82
2021/12/17 03:25:59;;;;;;;7.90;6.30;;;;;;;4.84;96.85;101359.44;6157342;23;20064;-82
2021/12/17 03:28:25;;;;;;;6.40;5.03;;;;;;;4.81;96.83;101355.47;6133374;23;20017;-82
2021/12/17 03:30:51;;;;;;;6.53;5.53;;;;;;;4.79;97.00;101356.97;6157511;23;20469;-82
2021/12/17 03:33:17;;;;;;;7.75;5.88;;;;;;;4.78;96.88;101358.13;6156659;23;20044;-82
2021/12/17 03:35:43;;;;;;;6.25;5.13;;;;;;;4.71;96.99;101345.06;6157324;23;20024;-82
2021/12/17 03:38:09;;;;;;;9.25;5.60;;;;;;;4.72;96.85;101360.41;6132588;23;20467;-82
2021/12/17 03:40:35;;;;;;;6.50;5.20;;;;;;;4.73;96.91;101363.94;6157538;23;20025;-82
2021/12/17 03:43:11;;;;;;;7.18;5.28;;;;;;;4.73;96.84;101358.44;6133187;23;20017;-82
2021/12/17 03:45:37;;;;;;;6.75;5.13;;;;;;;4.72;96.48;101351.34;6157740;23;20100;-82
2021/12/17 03:48:09;;;;;;;6.60;5.38;;;;;;;4.75;96.30;101367.13;6157708;23;20012;-82
2021/12/17 03:50:36;;;;;;;7.32;5.72;;;;;;;4.78;96.09;101369.13;6157309;23;20021;-82
2021/12/17 03:53:04;;;;;;;6.75;5.63;;;;;;;4.72;96.48;101345.88;6157042;23;20009;-82
2021/12/17 03:55:32;;;;;;;8.00;6.03;;;;;;;4.73;96.39;101347.47;6158148;23;20020;-82
2021/12/17 03:57:59;;;;;;;8.30;5.85;;;;;;;4.69;96.76;101363.88;6132936;23;20013;-82
2021/12/17 04:00:25;;;;;;;8.45;6.70;;;;;;;4.61;96.92;101362.16;6183937;23;20009;-82
2021/12/17 04:02:58;;;;;;;8.30;6.18;;;;;;;4.60;97.17;101382.56;6183994;23;20306;-82
2021/12/17 04:05:39;;;;;;;7.72;6.47;;;;;;;4.52;97.38;101378.88;6152829;23;20096;-82
2021/12/17 04:08:25;;;;;;;6.97;5.80;;;;;;;4.52;97.49;101378.09;6137857;23;20104;-82
2021/12/17 04:11:17;;;;;;;8.52;6.40;;;;;;;4.47;97.65;101378.38;6182998;23;20021;-82
2021/12/17 04:13:43;;;;;;;6.80;6.05;;;;;;;4.45;97.41;101386.97;6157439;23;20052;-82
2021/12/17 04:16:10;;;;;;;8.15;6.22;;;;;;;4.43;97.75;101394.00;6157277;23;20559;-82
2021/12/17 04:18:41;;;;;;;7.10;5.60;;;;;;;4.39;97.93;101393.94;6133279;23;20059;-82
2021/12/17 04:21:15;;;;;;;7.10;5.72;;;;;;;4.32;97.71;101399.28;6156876;23;20059;-82
2021/12/17 04:23:45;;;;;;;7.32;5.72;;;;;;;4.33;97.87;101398.09;6134718;23;20009;-82
2021/12/17 04:26:11;;;;;;;7.53;5.75;;;;;;;4.35;97.44;101409.53;6127715;23;20067;-82
2021/12/17 04:28:42;;;;;;;7.50;6.03;;;;;;;4.32;97.39;101403.97;6181443;23;20028;-82
2021/12/17 04:31:08;;;;;;;8.40;6.50;;;;;;;4.28;97.80;101403.91;6156787;23;20017;-82
2021/12/17 04:33:38;;;;;;;7.20;5.97;;;;;;;4.25;97.74;101403.84;6133239;23;20017;-82
2021/12/17 04:36:05;;;;;;;8.23;5.78;;;;;;;4.23;97.72;101412.44;6156857;23;20017;-82
2021/12/17 04:38:32;;;;;;;7.43;6.13;;;;;;;4.20;97.71;101413.16;6157076;23;20040;-82
2021/12/17 04:41:25;;;;;;;7.32;6.03;;;;;;;4.18;97.75;101415.44;6132903;23;20084;-82
2021/12/17 04:46:28;;;;;;;7.10;6.07;;;;;;;4.09;98.12;101425.84;6132682;23;20359;-82
2021/12/17 04:57:34;;;;;;;8.32;6.50;;;;;;;3.88;98.35;101417.97;6182686;23;20013;-81
2021/12/17 05:00:15;;;;;;;7.45;6.30;;;;;;;3.89;98.53;101435.19;6156363;23;20462;-81
2021/12/17 05:02:50;;;;;;;8.10;6.18;;;;;;;3.88;98.76;101422.66;6156847;23;20344;-82
2021/12/17 05:05:17;;;;;;;9.07;6.93;;;;;;;3.85;98.97;101412.38;6132760;23;20028;-82
2021/12/17 05:07:52;;;;;;;8.45;6.53;;;;;;;3.81;98.96;101419.72;6156489;23;20028;-81
2021/12/17 05:11:17;;;;;;;7.85;6.30;;;;;;;3.86;98.68;101422.19;6156945;23;20017;-82
2021/12/17 05:18:50;;;;;;;7.28;6.03;;;;;;;3.78;98.46;101426.72;6156869;23;20021;-81
2021/12/17 05:21:16;;;;;;;8.93;6.13;;;;;;;3.78;98.26;101429.47;6158279;23;20017;-82
2021/12/17 05:23:46;;;;;;;8.20;6.20;;;;;;;3.70;98.40;101430.47;6156209;23;20027;-82
2021/12/17 05:26:17;;;;;;;8.10;6.28;;;;;;;3.70;98.37;101438.69;6156434;23;20079;-82
2021/12/17 05:28:47;;;;;;;7.93;6.00;;;;;;;3.64;98.69;101440.91;6156866;23;20097;-82
2021/12/17 05:31:14;;;;;;;7.25;5.75;;;;;;;3.59;98.55;101438.47;6156468;23;20517;-82
2021/12/17 05:33:44;;;;;;;7.85;5.97;;;;;;;3.56;98.55;101444.63;6133393;23;20355;-82
2021/12/17 05:36:10;;;;;;;7.13;5.93;;;;;;;3.51;98.60;101453.16;6156256;23;20009;-82
2021/12/17 05:38:42;;;;;;;6.85;5.55;;;;;;;3.49;98.91;101432.69;6154245;23;20086;-82
2021/12/17 05:41:09;;;;;;;7.38;5.93;;;;;;;3.52;98.99;101441.00;6154658;23;20017;-83
2021/12/17 05:43:56;;;;;;;7.78;5.97;;;;;;;3.47;98.88;101449.53;6154999;23;20015;-83
2021/12/17 05:46:37;;;;;;;7.53;6.03;;;;;;;3.40;98.74;101441.09;6153819;23;20336;-83
2021/12/17 05:49:03;;;;;;;9.02;6.57;;;;;;;3.45;98.88;101451.03;6154916;23;20021;-82
2021/12/17 05:51:29;;;;;;;8.50;6.45;;;;;;;3.43;98.95;101453.34;6180776;23;20021;-82
2021/12/17 05:53:55;;;;;;;8.88;6.90;;;;;;;3.41;98.56;101450.13;6154634;23;20037;-82
2021/12/17 05:56:21;;;;;;;9.43;7.38;;;;;;;3.38;98.41;101470.84;6153059;23;20021;-83
2021/12/17 05:58:51;;;;;;;9.35;7.10;;;;;;;3.34;98.65;101466.41;6152778;23;20462;-82
2021/12/17 06:01:16;;;;;;;8.18;6.68;;;;;;;3.31;98.84;101475.38;6152130;23;20017;-82
2021/12/17 06:03:50;;;;;;;7.68;6.22;;;;;;;3.28;98.90;101477.66;6129652;23;20005;-82
2021/12/17 06:06:27;;;;;;;8.90;7.18;;;;;;;3.25;99.30;101467.38;6154271;23;20025;-82
2021/12/17 06:08:53;;;;;;;10.30;8.90;;;;;;;3.23;99.28;101474.38;6154431;23;20013;-82
2021/12/17 06:11:19;;;;;;;10.95;9.75;;;;;;;3.24;99.63;101481.44;6155881;23;20016;-83
2021/12/17 06:13:45;;;;;;;12.98;9.80;;;;;;;3.22;99.53;101467.31;6156524;23;20029;-82
2021/12/17 06:16:10;;;;;;;10.23;8.60;;;;;;;3.28;99.59;101483.13;6182306;23;20001;-83
2021/12/17 06:18:38;;;;;;;9.30;7.93;;;;;;;3.26;99.68;101488.19;6156113;23;20052;-82
2021/12/17 06:21:04;;;;;;;10.02;8.02;;;;;;;3.26;99.64;101488.19;6182869;23;20035;-83
2021/12/17 06:23:29;;;;;;;10.10;7.95;;;;;;;3.24;99.80;101475.97;6155907;23;20021;-82
2021/12/17 06:25:55;;;;;;;13.77;8.20;;;;;;;3.23;99.89;101474.38;6156442;23;20407;-82
2021/12/17 06:28:21;;;;;;;10.95;9.05;;;;;;;3.27;100.00;101486.25;6182715;23;20087;-82
2021/12/17 06:30:49;;;;;;;11.88;9.18;;;;;;;3.27;99.93;101486.25;6155973;23;20059;-83
2021/12/17 06:33:22;;;;;;;10.57;8.43;;;;;;;3.19;100.00;101481.72;6155887;23;20017;-82
2021/12/17 06:35:48;;;;;;;11.05;9.20;;;;;;;3.29;100.00;101484.72;6156177;23;20035;-82
2021/12/17 06:38:14;;;;;;;11.85;9.23;;;;;;;3.27;100.00;101486.25;6155454;23;20043;-82
2021/12/17 06:40:41;;;;;;;11.55;8.60;;;;;;;3.19;99.88;101484.47;6131969;23;20009;-82
2021/12/17 06:43:07;;;;;;;12.95;9.43;;;;;;;3.22;100.00;101498.25;6155493;23;20431;-82
2021/12/17 06:45:49;;;;;;;14.23;10.60;;;;;;;3.23;100.00;101488.91;6182698;23;20079;-82
2021/12/17 06:48:15;;;;;;;14.30;10.60;;;;;;;3.27;100.00;101491.72;6155276;23;20017;-82
2021/12/17 07:00:23;;;;;;;13.20;9.93;;;;;;;3.47;100.00;101485.19;6140691;23;20017;-82
2021/12/17 07:06:28;;;;;;;13.02;9.50;;;;;;;3.40;100.00;101479.50;6184765;23;20486;-82
2021/12/17 07:33:19;;;;;;;14.90;10.88;;;;;;;3.84;100.00;101493.13;6184275;23;20104;-85
2021/12/17 07:36:10;;;;;;;15.95;11.27;;;;;;;3.83;100.00;101483.31;6158533;23;20017;-85
2021/12/17 07:38:39;;;;;;;16.00;11.68;;;;;;;3.82;100.00;101495.44;6182676;23;20017;-82
2021/12/17 07:41:34;;;;;;;15.05;10.73;;;;;;;4.00;100.00;101493.91;6183180;23;20005;-83
2021/12/17 07:44:13;;;;;;;14.27;10.60;;;;;;;4.12;99.59;101500.09;6157747;23;20443;-82
2021/12/17 07:46:51;;;;;;;16.65;11.73;;;;;;;4.29;98.95;101501.63;6158051;23;20013;-83
2021/12/17 07:49:17;;;;;;;13.68;10.18;;;;;;;4.39;97.28;101501.06;6184166;23;20342;-82
2021/12/17 07:51:43;;;;;;;14.95;9.88;;;;;;;4.45;96.82;101507.09;6157578;23;20346;-82
2021/12/17 07:54:16;;;;;;;14.48;9.65;;;;;;;4.51;95.71;101492.69;6157882;23;20139;-82
2021/12/17 07:56:42;;;;;;;14.82;10.43;;;;;;;4.61;95.55;101505.84;6133683;23;20044;-85
2021/12/17 07:59:15;;;;;;;14.18;10.00;;;;;;;4.62;94.43;101510.19;6157253;23;20045;-86
2021/12/17 08:01:41;;;;;;;12.98;9.63;;;;;;;4.72;93.88;101527.28;6133651;23;20452;-85
2021/12/17 08:04:08;;;;;;;14.02;8.77;;;;;;;4.79;93.16;101522.72;6127690;23;20456;-84
2021/12/17 08:06:56;;;;;;;12.05;8.23;;;;;;;4.87;90.74;101523.66;6154343;23;20029;-85
2021/12/17 08:09:28;;;;;;;10.38;6.22;;;;;;;4.96;88.27;101526.97;6123927;23;20045;-85
2021/12/17 08:11:56;;;;;;;10.02;6.35;;;;;;;5.03;87.75;101530.66;6128081;23;20017;-83
2021/12/17 08:14:26;;;;;;;9.20;6.40;;;;;;;5.07;86.79;101528.78;6129090;23;20001;-83
2021/12/17 08:17:35;;;;;;;8.40;5.35;;;;;;;5.18;84.26;101521.53;6154767;23;20373;-83
2021/12/17 08:30:40;;;;;;;7.45;3.47;;;;;;;5.35;79.32;101550.53;6112170;23;20565;-83
2021/12/17 08:33:26;;;;;;;8.05;3.97;;;;;;;5.31;80.20;101543.34;6153320;23;20053;-83
2021/12/17 08:35:54;;;;;;;9.85;4.55;;;;;;;5.34;80.46;101559.94;6128244;23;20072;-82
2021/12/17 08:38:29;;;;;;;7.78;4.10;;;;;;;5.32;80.39;101551.25;6127186;23;20009;-83
2021/12/17 08:40:59;;;;;;;7.30;3.80;;;;;;;5.38;78.93;101557.28;6128096;23;20080;-82
2021/12/17 08:43:25;;;;;;;7.38;3.65;;;;;;;5.42;78.35;101561.66;6153506;23;20048;-83
2021/12/17 08:45:53;;;;;;;7.53;3.70;;;;;;;5.43;78.11;101563.25;6128242;23;20017;-83
2021/12/17 08:48:48;;;;;;;9.68;4.22;;;;;;;5.45;79.19;101555.44;6141056;23;20025;-83
2021/12/17 08:51:46;;;;;;;6.35;3.50;;;;;;;5.40;78.73;101541.97;6108902;23;20026;-83
2021/12/17 08:54:12;;;;;;;8.60;3.70;;;;;;;5.46;79.77;101548.75;6127432;23;20023;-83
2021/12/17 08:56:47;;;;;;;8.32;3.80;;;;;;;5.48;78.79;101543.69;6152538;23;20343;-83
2021/12/17 08:59:17;;;;;;;7.35;3.85;;;;;;;5.53;79.27;101543.41;6097731;23;20029;-83
2021/12/17 09:02:02;;;;;;;8.20;4.13;;;;;;;5.56;78.60;101537.16;6144747;23;20471;-83
2021/12/17 09:04:29;;;;;;;8.07;3.72;;;;;;;5.61;77.99;101520.34;6138559;23;20028;-83
2021/12/17 09:06:56;;;;;;;6.85;3.70;;;;;;;5.58;78.99;101509.28;6157480;23;20017;-83
2021/12/17 09:09:23;;;;;;;7.75;3.83;;;;;;;5.64;78.81;101525.09;6157419;23;20067;-83
2021/12/17 09:11:50;;;;;;;8.13;3.60;;;;;;;5.64;78.80;101518.81;6183983;23;20043;-85
2021/12/17 09:14:23;;;;;;;7.47;3.95;;;;;;;5.71;79.22;101524.41;6156579;23;20514;-85
2021/12/17 09:16:56;;;;;;;7.18;3.47;;;;;;;5.74;78.56;101533.91;6157140;23;20009;-85
2021/12/17 09:19:28;;;;;;;8.43;4.03;;;;;;;5.75;79.08;101529.97;6132716;23;20013;-85
2021/12/17 09:21:57;;;;;;;8.07;4.43;;;;;;;5.77;78.53;101511.16;6157329;23;20005;-85
2021/12/17 09:24:47;;;;;;;7.35;4.13;;;;;;;5.85;79.16;101507.34;6156948;23;20096;-85
2021/12/17 09:27:19;;;;;;;9.13;4.60;;;;;;;5.89;78.91;101505.47;6193837;23;20077;-85
2021/12/17 09:30:05;;;;;;;8.30;4.43;;;;;;;5.92;78.70;101505.53;6183390;23;20078;-85
2021/12/17 09:32:30;;;;;;;9.65;4.45;;;;;;;6.04;79.14;101493.50;6183384;23;20036;-85
2021/12/17 09:34:57;;;;;;;6.78;3.95;;;;;;;6.12;77.85;101495.19;6183567;23;20063;-85
2021/12/17 09:37:23;;;;;;;7.35;3.65;;;;;;;6.20;77.16;101483.09;6156806;23;20380;-84
2021/12/17 09:39:48;;;;;;;9.80;4.35;;;;;;;6.26;77.65;101484.38;6182849;23;20009;-85
2021/12/17 09:42:14;;;;;;;11.95;4.40;;;;;;;6.33;77.80;101478.97;6183509;23;20013;-85
2021/12/17 09:44:41;;;;;;;8.60;4.93;;;;;;;6.46;78.21;101490.56;6182831;23;20432;-86
2021/12/17 09:47:07;;;;;;;5.40;3.53;;;;;;;6.51;76.92;101498.50;6183495;23;20020;-85
2021/12/17 09:49:32;;;;;;;11.73;4.85;;;;;;;6.61;77.12;101488.78;6156714;23;20013;-85
2021/12/17 09:51:59;;;;;;;10.73;4.88;;;;;;;6.66;77.10;101502.22;6156876;23;20087;-82
2021/12/17 09:54:25;;;;;;;9.77;4.75;;;;;;;6.72;76.66;101489.69;6156873;23;20041;-82
2021/12/17 09:56:51;;;;;;;7.03;4.10;;;;;;;6.84;75.83;101475.66;6183482;23;20013;-82
2021/12/17 09:59:16;;;;;;;9.55;4.32;;;;;;;6.89;75.77;101484.38;6182744;23;20009;-83
2021/12/17 10:01:43;;;;;;;7.70;4.18;;;;;;;6.89;76.20;101489.09;6157041;23;20023;-82
2021/12/17 10:04:13;;;;;;;8.55;4.70;;;;;;;7.02;76.47;101485.72;6182840;23;20040;-82
2021/12/17 10:06:38;;;;;;;10.55;4.50;;;;;;;7.09;75.11;101482.22;6156833;23;20012;-82
2021/12/17 10:09:04;;;;;;;9.85;4.70;;;;;;;7.02;74.95;101484.94;6183141;23;20086;-83
2021/12/17 10:11:30;;;;;;;12.35;4.40;;;;;;;6.91;74.57;101492.31;6156572;23;20001;-83
2021/12/17 10:14:15;;;;;;;9.60;4.32;;;;;;;7.04;75.05;101491.66;6183068;23;20435;-82
2021/12/17 10:16:41;;;;;;;8.75;4.43;;;;;;;7.16;75.14;101471.25;6183005;23;20009;-83
2021/12/17 10:19:06;;;;;;;12.68;4.72;;;;;;;7.09;74.07;101498.78;6156759;23;20537;-83
2021/12/17 10:21:34;;;;;;;7.20;3.75;;;;;;;7.18;73.75;101490.22;6182777;23;20013;-83
2021/12/17 10:23:59;;;;;;;9.00;4.40;;;;;;;7.31;74.21;101481.28;6157069;23;20013;-83
2021/12/17 10:26:27;;;;;;;11.45;4.50;;;;;;;7.42;72.85;101464.81;6182956;23;20086;-83
2021/12/17 10:28:54;;;;;;;9.43;4.53;;;;;;;7.46;73.08;101460.13;6182492;23;19998;-83
2021/12/17 10:31:19;;;;;;;8.32;4.05;;;;;;;7.53;72.83;101476.75;6182712;23;20016;-82
2021/12/17 10:33:53;;;;;;;10.77;4.75;;;;;;;7.56;72.70;101453.91;6156602;23;20012;-83
2021/12/17 10:36:33;;;;;;;10.48;4.40;;;;;;;7.46;72.36;101460.91;6182992;23;20072;-83
2021/12/17 10:39:03;;;;;;;8.05;3.88;;;;;;;7.44;71.83;101466.00;6182401;23;20068;-83
2021/12/17 10:41:29;;;;;;;9.27;4.32;;;;;;;7.40;70.61;101478.22;6182752;23;20439;-82
2021/12/17 10:44:06;;;;;;;9.63;4.07;;;;;;;7.46;71.35;101466.44;6182814;23;20017;-82
2021/12/17 10:46:32;;;;;;;11.35;4.80;;;;;;;7.67;71.74;101467.78;6182778;23;20069;-86
2021/12/17 10:54:15;;;;;;;9.90;4.15;;;;;;;7.50;71.41;101472.78;6182451;23;20040;-83
2021/12/17 10:56:45;;;;;;;8.77;3.70;;;;;;;7.45;70.78;101491.66;6182615;23;20084;-82
2021/12/17 10:59:22;;;;;;;11.45;4.63;;;;;;;7.39;71.63;101507.78;6182405;23;20036;-83
2021/12/17 11:01:52;;;;;;;9.20;4.82;;;;;;;7.28;72.64;101492.31;6182735;23;20347;-83
2021/12/17 11:04:23;;;;;;;10.55;5.35;;;;;;;7.16;73.54;101504.38;6182513;23;20444;-83
2021/12/17 11:07:04;;;;;;;7.93;4.70;;;;;;;7.12;73.58;101492.50;6182934;23;20009;-83
2021/12/17 11:09:40;;;;;;;6.93;4.57;;;;;;;7.11;74.30;101503.94;6181812;23;20017;-83
2021/12/17 11:12:14;;;;;;;10.98;5.32;;;;;;;7.14;74.76;101486.63;6183099;23;20021;-83
2021/12/17 11:14:41;;;;;;;10.85;5.25;;;;;;;7.15;75.28;101479.94;6182256;23;20020;-83
2021/12/17 11:17:12;;;;;;;8.30;4.90;;;;;;;7.11;74.72;101485.44;6182624;23;20004;-82
2021/12/17 11:19:39;;;;;;;9.32;5.25;;;;;;;6.99;75.36;101486.50;6155721;23;20048;-83
2021/12/17 11:22:05;;;;;;;11.38;5.28;;;;;;;7.02;75.94;101490.44;6132030;23;20478;-83
2021/12/17 11:24:33;;;;;;;8.32;5.38;;;;;;;6.98;75.18;101478.56;6155941;23;20008;-83
2021/12/17 11:26:59;;;;;;;10.35;5.35;;;;;;;7.07;75.91;101492.88;6156724;23;20496;-82
2021/12/17 11:29:25;;;;;;;10.98;5.10;;;;;;;7.19;74.91;101489.84;6182209;23;20096;-83
2021/12/17 11:31:51;;;;;;;12.00;5.68;;;;;;;7.33;74.86;101469.84;6182277;23;20264;-83
2021/12/17 11:34:20;;;;;;;9.00;4.63;;;;;;;7.47;72.50;101468.03;6182605;23;20300;-84
2021/12/17 11:36:47;;;;;;;10.13;6.28;;;;;;;7.33;73.11;101473.41;6156368;23;20009;-83
2021/12/17 11:39:24;;;;;;;9.88;6.15;;;;;;;7.37;73.32;101454.91;6156255;23;20104;-83
2021/12/17 11:42:29;;;;;;;13.20;6.00;;;;;;;7.36;73.49;101464.34;6132354;23;20019;-83
2021/12/17 11:47:44;;;;;;;10.07;5.82;;;;;;;7.26;73.65;101467.84;6162216;23;20016;-85
2021/12/17 11:50:11;;;;;;;8.35;5.00;;;;;;;7.30;73.50;101460.38;6158164;23;20017;-84
2021/12/17 11:52:45;;;;;;;8.93;5.13;;;;;;;7.30;73.02;101445.78;6184355;23;20001;-85
2021/12/17 11:55:20;;;;;;;9.13;5.28;;;;;;;7.47;73.47;101448.72;6157776;23;20017;-84
2021/12/17 11:57:50;;;;;;;8.98;5.28;;;;;;;7.59;72.23;101431.03;6184071;23;20041;-85
2021/12/17 12:00:18;;;;;;;7.32;4.13;;;;;;;7.65;70.74;101443.31;6157977;23;20013;-85
2021/12/17 12:02:48;;;;;;;11.65;4.88;;;;;;;7.74;70.58;101437.47;6157743;23;20413;-85
2021/12/17 12:05:36;;;;;;;9.65;5.03;;;;;;;7.85;70.60;101441.06;6183846;23;20048;-85
2021/12/17 12:08:50;;;;;;;10.23;4.50;;;;;;;7.94;70.82;101438.78;6158337;23;20080;-85
2021/12/17 12:11:23;;;;;;;11.43;5.45;;;;;;;8.13;70.96;101427.44;6184593;23;20017;-85
2021/12/17 12:13:52;;;;;;;7.77;4.07;;;;;;;8.12;68.98;101431.41;6157671;23;20451;-85
2021/12/17 12:16:20;;;;;;;9.02;4.93;;;;;;;8.19;69.24;101425.09;6184222;23;20013;-85
2021/12/17 12:18:50;;;;;;;10.07;5.05;;;;;;;8.20;68.39;101424.72;6157856;23;20071;-85
2021/12/17 12:21:25;;;;;;;8.07;5.28;;;;;;;8.10;68.87;101424.66;6184198;23;20430;-82
2021/12/17 12:24:13;;;;;;;10.73;4.97;;;;;;;7.94;68.67;101424.97;6184074;23;20020;-85
2021/12/17 12:26:42;;;;;;;8.18;4.75;;;;;;;7.87;69.03;101413.88;6183751;23;20024;-85
2021/12/17 12:29:13;;;;;;;9.48;4.40;;;;;;;7.69;68.48;101422.03;6183832;23;20012;-84
2021/12/17 12:31:40;;;;;;;8.95;4.55;;;;;;;7.71;69.11;101418.91;6157527;23;20514;-84
2021/12/17 12:34:08;;;;;;;7.95;4.55;;;;;;;7.81;69.42;101412.63;6183734;23;20020;-85
2021/12/17 12:36:52;;;;;;;8.93;4.78;;;;;;;7.85;69.31;101418.97;6183658;23;20072;-85
2021/12/17 12:39:25;;;;;;;8.00;4.60;;;;;;;7.70;68.36;101404.28;6183286;23;20020;-83
2021/12/17 12:42:11;;;;;;;11.65;4.88;;;;;;;7.62;68.76;101426.72;6157594;23;20024;-83
2021/12/17 12:44:39;;;;;;;7.70;4.30;;;;;;;7.58;69.59;101426.69;6183245;23;20447;-86
2021/12/17 12:47:06;;;;;;;8.23;4.40;;;;;;;7.57;70.38;101418.78;6183584;23;20100;-86
2021/12/17 12:49:47;;;;;;;8.65;4.70;;;;;;;7.61;70.49;101427.88;6157392;23;20009;-86
2021/12/17 12:52:36;;;;;;;10.45;5.30;;;;;;;7.60;70.12;101418.84;6183461;23;20325;-86
2021/12/17 12:55:07;;;;;;;7.88;4.47;;;;;;;7.64;69.87;101407.81;6183824;23;20013;-87
2021/12/17 12:57:39;;;;;;;8.60;5.28;;;;;;;7.80;69.69;101400.03;6156674;23;20013;-86
2021/12/17 13:00:24;;;;;;;9.15;4.55;;;;;;;7.82;68.50;101405.94;6154274;23;20087;-86
2021/12/17 13:02:57;;;;;;;9.02;4.65;;;;;;;7.75;68.17;101397.63;6181064;23;20021;-83
2021/12/17 13:05:24;;;;;;;11.40;5.45;;;;;;;7.89;69.26;101397.69;6181725;23;20025;-84
2021/12/17 13:07:52;;;;;;;8.45;5.10;;;;;;;7.94;68.14;101395.38;6155487;23;20017;-84
2021/12/17 13:10:21;;;;;;;8.02;4.85;;;;;;;7.87;67.70;101383.47;6181975;23;20048;-83
2021/12/17 13:13:01;;;;;;;12.27;5.72;;;;;;;7.92;67.26;101386.69;6180245;23;20017;-84
2021/12/17 13:21:20;;;;;;;8.55;5.15;;;;;;;8.18;66.94;101396.66;6179474;23;20021;-87
2021/12/17 13:23:55;;;;;;;10.32;5.15;;;;;;;8.15;66.77;101400.22;6130455;23;20447;-86
2021/12/17 13:26:23;;;;;;;8.15;4.18;;;;;;;8.02;66.49;101400.94;6180444;23;20009;-86
2021/12/17 13:28:52;;;;;;;8.65;4.65;;;;;;;8.00;66.51;101415.16;6154395;23;20005;-86
2021/12/17 13:31:39;;;;;;;7.00;4.35;;;;;;;7.99;66.22;101408.03;6181710;23;20021;-85
2021/12/17 13:34:39;;;;;;;10.02;5.35;;;;;;;8.00;66.87;101398.56;6181533;23;20013;-86
2021/12/17 13:37:25;;;;;;;10.25;5.25;;;;;;;7.95;66.71;101401.69;6149884;23;20021;-83
2021/12/17 13:40:05;;;;;;;9.45;5.38;;;;;;;7.72;68.02;101392.88;6181508;23;20071;-83
2021/12/17 13:42:33;;;;;;;9.60;5.50;;;;;;;7.80;67.76;101397.25;6181941;23;20017;-83
2021/12/17 13:45:05;;;;;;;8.90;5.57;;;;;;;7.84;67.25;101400.84;6130583;23;20419;-83
2021/12/17 13:47:47;;;;;;;11.23;5.53;;;;;;;7.82;67.53;101403.19;6155238;23;20009;-83
2021/12/17 13:50:37;;;;;;;7.53;4.78;;;;;;;7.83;68.59;101399.25;6181412;23;20084;-83
2021/12/17 13:53:12;;;;;;;9.27;5.38;;;;;;;7.65;67.72;101392.81;6155763;23;20048;-83
2021/12/17 13:55:41;;;;;;;7.95;5.35;;;;;;;7.54;68.29;101402.97;6155017;23;20021;-83
2021/12/17 13:58:11;;;;;;;9.43;5.25;;;;;;;7.36;69.53;101403.63;6181355;23;20024;-83
2021/12/17 14:00:42;;;;;;;10.40;5.65;;;;;;;7.17;70.12;101401.09;6180792;23;20017;-86
2021/12/17 14:03:13;;;;;;;10.93;5.30;;;;;;;7.05;70.93;101401.41;6181842;23;20017;-87
2021/12/17 14:05:58;;;;;;;9.98;5.60;;;;;;;6.91;71.06;101409.53;6180275;23;20019;-86
2021/12/17 14:08:24;;;;;;;11.32;5.78;;;;;;;6.72;71.16;101401.44;6181025;23;20016;-86
2021/12/17 14:10:53;;;;;;;11.65;5.68;;;;;;;6.66;71.66;101411.25;6180627;23;20002;-86
2021/12/17 14:13:26;;;;;;;9.57;6.10;;;;;;;6.59;72.55;101406.47;6155546;23;20064;-86
2021/12/17 14:15:54;;;;;;;11.07;5.82;;;;;;;6.53;73.14;101407.94;6181691;23;20016;-86
2021/12/17 14:18:27;;;;;;;8.65;5.70;;;;;;;6.50;73.53;101412.25;6181589;23;20309;-83
2021/12/17 14:20:54;;;;;;;11.45;6.63;;;;;;;6.49;74.07;101407.91;6155144;23;20044;-83
2021/12/17 14:23:25;;;;;;;10.90;6.78;;;;;;;6.41;74.58;101391.66;6154686;23;20028;-83
2021/12/17 14:25:58;;;;;;;11.27;6.75;;;;;;;6.45;74.57;101409.03;6181969;23;20013;-83
2021/12/17 14:28:26;;;;;;;16.15;6.80;;;;;;;6.35;74.13;101410.47;6180920;23;20028;-83
2021/12/17 14:31:00;;;;;;;9.77;6.70;;;;;;;6.36;73.91;101403.00;6181473;23;20450;-83
2021/12/17 14:33:39;;;;;;;9.50;5.68;;;;;;;6.32;73.90;101408.47;6154766;23;20111;-86
2021/12/17 14:36:10;;;;;;;10.93;6.53;;;;;;;6.27;73.88;101414.31;6181346;23;20020;-86
2021/12/17 14:38:57;;;;;;;10.43;6.47;;;;;;;6.29;73.30;101416.72;6154429;23;20047;-87